Time;durP1;ratioP1;P1;durP2;ratioP2;P2;SDS_P1;SDS_P2;PMS_P1;PMS_P2;Temp;Humidity;BMP_temperature;BMP_pressure;BME280_temperature;BME280_humidity;BME280_pressure;Samples;Min_cycle;Max_cycle;Signal;HPM_P1;HPM_P2
2021/08/07 00:00:35;;;;;;;;;;;;;;;22.41;68.33;95968.34;221664;262;99432;-60
2021/08/07 00:01:37;;;;;;;;;;;;;;;22.49;68.24;95972.84;220645;263;98949;-60
2021/08/07 00:02:38;;;;;;;;;;;;;;;22.43;68.26;95968.77;221255;262;99070;-61
2021/08/07 00:03:39;;;;;;;;;;;;;;;22.39;68.41;95974.01;221428;262;98949;-60
2021/08/07 00:04:41;;;;;;;;;;;;;;;22.37;68.39;95972.20;220800;262;98997;-61
2021/08/07 00:05:42;;;;;;;;;;;;;;;22.39;68.45;95974.01;221020;263;98965;-60
2021/08/07 00:06:43;;;;;;;;;;;;;;;22.41;68.36;95975.82;220992;262;98873;-60
2021/08/07 00:07:45;;;;;;;;;;;;;;;22.42;68.32;95975.45;221285;262;100220;-56
2021/08/07 00:08:46;;;;;;;;;;;;;;;22.38;68.44;95973.22;221614;262;98974;-60
2021/08/07 00:09:47;;;;;;;;;;;;;;;22.40;68.41;95971.47;220845;262;98870;-59
2021/08/07 00:10:49;;;;;;;;;;;;;;;22.39;68.49;95974.01;221061;263;98948;-60
2021/08/07 00:11:50;;;;;;;;;;;;;;;22.37;68.57;95967.48;221018;262;99119;-61
2021/08/07 00:12:51;;;;;;;;;;;;;;;22.37;68.62;95979.90;221017;262;98937;-60
2021/08/07 00:13:53;;;;;;;;;;;;;;;22.37;68.54;95978.52;220721;263;98998;-61
2021/08/07 00:14:54;;;;;;;;;;;;;;;22.34;68.68;95982.02;220504;262;98112;-61
2021/08/07 00:15:55;;;;;;;;;;;;;;;22.37;68.70;95979.90;220194;263;97941;-60
2021/08/07 00:16:57;;;;;;;;;;;;;;;22.33;68.77;95976.28;220845;262;98950;-60
2021/08/07 00:17:58;;;;;;;;;;;;;;;22.34;68.78;95982.60;221135;262;99018;-61
2021/08/07 00:18:59;;;;;;;;;;;;;;;22.32;68.77;95976.03;220905;262;98943;-62
2021/08/07 00:20:01;;;;;;;;;;;;;;;22.35;68.79;95973.95;221188;261;98943;-61
2021/08/07 00:21:02;;;;;;;;;;;;;;;22.32;68.83;95975.23;220926;262;98182;-60
2021/08/07 00:22:03;;;;;;;;;;;;;;;22.35;68.76;95973.95;220804;262;97987;-61
2021/08/07 00:23:05;;;;;;;;;;;;;;;22.31;68.82;95979.96;221118;262;97654;-60
2021/08/07 00:24:06;;;;;;;;;;;;;;;22.37;68.79;95979.10;220969;262;99028;-61
2021/08/07 00:25:07;;;;;;;;;;;;;;;22.30;68.86;95979.75;221641;262;98989;-60
2021/08/07 00:26:09;;;;;;;;;;;;;;;22.30;68.87;95978.37;221112;262;98941;-61
2021/08/07 00:27:10;;;;;;;;;;;;;;;22.32;68.87;95976.03;221004;262;98061;-60
2021/08/07 00:28:11;;;;;;;;;;;;;;;22.28;68.99;95972.42;220960;262;97996;-60
2021/08/07 00:29:13;;;;;;;;;;;;;;;22.27;69.05;95973.58;220434;262;98001;-62
2021/08/07 00:30:14;;;;;;;;;;;;;;;22.25;69.11;95970.97;221738;260;98164;-61
2021/08/07 00:31:15;;;;;;;;;;;;;;;22.26;69.11;95969.81;221548;261;98950;-61
2021/08/07 00:32:17;;;;;;;;;;;;;;;22.25;69.09;95970.39;221653;261;98993;-61
2021/08/07 00:33:18;;;;;;;;;;;;;;;22.24;69.15;95963.28;221386;262;98136;-60
2021/08/07 00:34:19;;;;;;;;;;;;;;;22.25;69.22;95966.83;222468;261;97920;-60
2021/08/07 00:35:21;;;;;;;;;;;;;;;22.22;69.21;95968.33;221540;261;98937;-61
2021/08/07 00:36:22;;;;;;;;;;;;;;;22.23;69.19;95968.58;222185;261;193795;-61
2021/08/07 00:37:24;;;;;;;;;;;;;;;22.23;69.19;95969.96;220725;262;98966;-61
2021/08/07 00:38:25;;;;;;;;;;;;;;;22.21;69.28;95970.30;220507;261;97995;-61
2021/08/07 00:39:26;;;;;;;;;;;;;;;22.17;69.37;95976.92;221058;261;98939;-62
2021/08/07 00:40:28;;;;;;;;;;;;;;;22.16;69.38;95967.05;220523;262;98906;-60
2021/08/07 00:41:29;;;;;;;;;;;;;;;22.16;69.40;95973.94;221126;261;99504;-60
2021/08/07 00:42:30;;;;;;;;;;;;;;;22.16;69.34;95971.19;221145;262;98946;-60
2021/08/07 00:43:32;;;;;;;;;;;;;;;22.16;69.38;95974.73;221261;261;98962;-60
2021/08/07 00:44:33;;;;;;;;;;;;;;;22.18;69.45;95972.99;222438;261;98949;-61
2021/08/07 00:45:34;;;;;;;;;;;;;;;22.17;69.40;95972.78;222382;261;98949;-61
2021/08/07 00:46:36;;;;;;;;;;;;;;;22.15;69.51;95975.11;219466;264;98908;-62
2021/08/07 00:47:37;;;;;;;;;;;;;;;22.15;69.49;95975.11;219843;262;98942;-60
2021/08/07 00:48:38;;;;;;;;;;;;;;;22.18;69.50;95974.38;220835;262;99432;-61
2021/08/07 00:49:40;;;;;;;;;;;;;;;22.25;69.42;95969.02;220787;262;98969;-60
2021/08/07 00:50:41;;;;;;;;;;;;;;;22.22;69.45;95967.78;220723;263;98986;-60
2021/08/07 00:51:42;;;;;;;;;;;;;;;22.23;69.47;95971.34;220984;263;98949;-61
2021/08/07 00:52:44;;;;;;;;;;;;;;;22.26;69.49;95971.98;220810;263;98926;-61
2021/08/07 00:53:45;;;;;;;;;;;;;;;22.23;69.56;95965.82;220950;263;99012;-61
2021/08/07 00:54:46;;;;;;;;;;;;;;;22.20;69.68;95962.39;220685;263;97973;-60
2021/08/07 00:55:48;;;;;;;;;;;;;;;22.20;69.57;95970.66;221003;263;98015;-60
2021/08/07 00:56:49;;;;;;;;;;;;;;;22.20;69.60;95969.28;220807;263;98141;-61
2021/08/07 00:57:50;;;;;;;;;;;;;;;22.20;69.62;95976.98;220489;262;192018;-60
2021/08/07 00:58:52;;;;;;;;;;;;;;;22.22;69.59;95978.83;221451;262;98961;-62
2021/08/07 00:59:53;;;;;;;;;;;;;;;22.23;69.66;95981.00;221235;261;99053;-60
2021/08/07 01:00:54;;;;;;;;;;;;;;;22.23;69.62;95982.38;221234;262;98017;-61
2021/08/07 01:01:56;;;;;;;;;;;;;;;22.20;69.69;95978.36;220769;263;98005;-61
2021/08/07 01:02:57;;;;;;;;;;;;;;;22.17;69.69;95981.06;221116;262;98235;-59
2021/08/07 01:03:58;;;;;;;;;;;;;;;22.19;69.90;95979.52;220866;262;97014;-61
2021/08/07 01:05:00;;;;;;;;;;;;;;;22.18;69.92;95974.38;220664;263;98957;-61
2021/08/07 01:06:01;;;;;;;;;;;;;;;22.17;69.90;95982.44;220976;263;99590;-60
2021/08/07 01:07:04;;;;;;;;;;;;;;;22.16;69.90;95978.08;220859;263;97959;-60
2021/08/07 01:08:05;;;;;;;;;;;;;;;22.19;69.73;95976.77;220970;263;98929;-61
2021/08/07 01:09:06;;;;;;;;;;;;;;;22.16;69.83;95975.33;221030;262;98999;-61
2021/08/07 01:10:08;;;;;;;;;;;;;;;22.16;69.86;95977.50;221408;261;99011;-61
2021/08/07 01:11:09;;;;;;;;;;;;;;;22.16;69.89;95969.80;220672;263;194948;-60
2021/08/07 01:12:11;;;;;;;;;;;;;;;22.16;69.98;95968.42;220703;263;193276;-60
2021/08/07 01:13:12;;;;;;;;;;;;;;;22.14;70.13;95970.75;220990;263;99035;-61
2021/08/07 01:14:14;;;;;;;;;;;;;;;22.14;70.33;95970.17;220747;263;98973;-60
2021/08/07 01:15:15;;;;;;;;;;;;;;;22.15;70.29;95969.01;221222;262;98961;-60
2021/08/07 01:16:16;;;;;;;;;;;;;;;22.11;70.23;95963.17;221238;262;98953;-62
2021/08/07 01:17:18;;;;;;;;;;;;;;;22.11;70.24;95964.55;221472;262;98957;-61
2021/08/07 01:18:20;;;;;;;;;;;;;;;22.11;70.24;95972.25;220475;263;194816;-59
2021/08/07 01:19:21;;;;;;;;;;;;;;;22.13;70.33;95977.44;220426;262;194037;-59
2021/08/07 01:20:24;;;;;;;;;;;;;;;22.12;70.42;95975.84;221373;261;98933;-59
2021/08/07 01:21:25;;;;;;;;;;;;;;;22.12;70.34;95964.80;220829;262;98929;-60
2021/08/07 01:22:27;;;;;;;;;;;;;;;22.10;70.44;95967.90;221075;262;97977;-59
2021/08/07 01:23:28;;;;;;;;;;;;;;;22.13;70.30;95970.54;220985;262;99371;-59
2021/08/07 01:24:29;;;;;;;;;;;;;;;22.11;70.45;95969.49;220676;262;276226;-59
2021/08/07 01:25:31;;;;;;;;;;;;;;;22.16;70.31;95969.80;220828;262;194788;-59
2021/08/07 01:26:33;;;;;;;;;;;;;;;22.14;70.52;95961.09;220827;262;193366;-60
2021/08/07 01:27:34;;;;;;;;;;;;;;;22.15;70.61;95966.83;219979;263;98949;-59
2021/08/07 01:28:35;;;;;;;;;;;;;;;22.15;70.58;95968.20;220824;263;97955;-59
2021/08/07 01:29:37;;;;;;;;;;;;;;;22.14;70.57;95961.89;220842;262;98043;-59
2021/08/07 01:30:38;;;;;;;;;;;;;;;22.15;70.59;95958.55;220404;262;98002;-58
2021/08/07 01:31:39;;;;;;;;;;;;;;;22.10;70.65;95957.45;221186;262;97044;-58
2021/08/07 01:32:41;;;;;;;;;;;;;;;22.10;70.68;95960.20;220795;261;98925;-59
2021/08/07 01:33:42;;;;;;;;;;;;;;;22.10;70.73;95959.63;221424;261;193274;-60
2021/08/07 01:34:43;;;;;;;;;;;;;;;22.09;70.68;95955.27;221646;261;100390;-59
2021/08/07 01:35:45;;;;;;;;;;;;;;;22.10;70.58;95958.83;221604;261;98016;-60
2021/08/07 01:36:46;;;;;;;;;;;;;;;22.07;70.53;95954.03;221819;261;98092;-60
2021/08/07 01:37:47;;;;;;;;;;;;;;;22.09;70.56;95961.37;220963;261;97580;-60
2021/08/07 01:38:49;;;;;;;;;;;;;;;22.08;70.76;95959.77;222226;261;98993;-60
2021/08/07 01:39:50;;;;;;;;;;;;;;;22.08;70.77;95952.30;220964;262;98917;-60
2021/08/07 01:40:51;;;;;;;;;;;;;;;22.07;70.83;95953.45;221027;262;98945;-60
2021/08/07 01:41:53;;;;;;;;;;;;;;;22.10;70.66;95953.30;220063;264;98933;-59
2021/08/07 01:42:54;;;;;;;;;;;;;;;22.07;70.88;95948.52;220727;261;97951;-63
2021/08/07 01:43:55;;;;;;;;;;;;;;;22.31;70.08;95949.59;222321;261;97060;-64
2021/08/07 01:44:57;;;;;;;;;;;;;;;22.34;70.31;95950.27;221665;261;98948;-65
2021/08/07 01:45:58;;;;;;;;;;;;;;;22.32;70.37;95952.58;221747;261;98925;-66
2021/08/07 01:46:59;;;;;;;;;;;;;;;22.33;70.66;95951.98;221049;261;98948;-65
2021/08/07 01:48:01;;;;;;;;;;;;;;;22.29;70.73;95949.75;220552;263;99001;-66
2021/08/07 01:49:02;;;;;;;;;;;;;;;22.26;71.00;95953.25;220329;264;98905;-66
2021/08/07 01:50:03;;;;;;;;;;;;;;;22.28;71.02;95957.23;220880;261;97959;-66
2021/08/07 01:51:05;;;;;;;;;;;;;;;22.25;71.18;95955.21;221163;262;98952;-63
2021/08/07 01:52:06;;;;;;;;;;;;;;;22.27;70.99;95951.50;220880;262;98931;-62
2021/08/07 01:53:08;;;;;;;;;;;;;;;22.28;70.90;95948.95;221892;262;98958;-65
2021/08/07 01:54:09;;;;;;;;;;;;;;;22.30;71.05;95949.97;221042;262;98009;-64
2021/08/07 01:55:11;;;;;;;;;;;;;;;22.31;71.20;95948.22;220934;262;193930;-64
2021/08/07 01:56:12;;;;;;;;;;;;;;;22.24;71.46;95952.23;221266;262;98119;-62
2021/08/07 01:57:14;;;;;;;;;;;;;;;22.26;71.39;95948.53;222028;261;97991;-64
2021/08/07 01:58:15;;;;;;;;;;;;;;;22.27;71.33;95954.26;221144;262;98933;-65
2021/08/07 01:59:16;;;;;;;;;;;;;;;22.32;71.31;95949.81;221614;262;98858;-63
2021/08/07 02:00:18;;;;;;;;;;;;;;;22.33;71.10;95954.20;220973;262;98925;-64
2021/08/07 02:01:19;;;;;;;;;;;;;;;22.32;71.49;95951.77;220663;262;197183;-62
2021/08/07 02:02:20;;;;;;;;;;;;;;;22.35;71.07;95952.45;221450;261;193114;-62
2021/08/07 02:03:22;;;;;;;;;;;;;;;22.33;71.12;95951.44;220925;262;98013;-63
2021/08/07 02:04:23;;;;;;;;;;;;;;;22.31;71.11;95955.70;220714;262;99314;-63
2021/08/07 02:05:25;;;;;;;;;;;;;;;22.31;71.03;95948.80;221983;262;98934;-63
2021/08/07 02:06:26;;;;;;;;;;;;;;;22.31;71.21;95949.59;221616;262;96848;-63
2021/08/07 02:07:28;;;;;;;;;;;;;;;22.31;71.32;95952.94;222360;261;98961;-66
2021/08/07 02:08:29;;;;;;;;;;;;;;;22.18;72.97;95956.44;221702;261;100653;-66
2021/08/07 02:09:31;;;;;;;;;;;;;;;22.31;71.32;95952.36;221044;262;193327;-66
2021/08/07 02:10:32;;;;;;;;;;;;;;;22.40;70.98;95947.42;221677;262;98967;-69
2021/08/07 02:11:34;;;;;;;;;;;;;;;22.40;70.88;95949.38;221683;262;98530;-66
2021/08/07 02:12:35;;;;;;;;;;;;;;;22.40;70.91;95954.32;221134;262;97894;-67
2021/08/07 02:13:37;;;;;;;;;;;;;;;22.40;70.92;95948.80;220995;262;98125;-65
2021/08/07 02:14:40;;;;;;;;;;;;;;;22.28;72.39;95950.92;221800;262;98004;-67
2021/08/07 02:15:41;;;;;;;;;;;;;;;22.37;71.12;95953.67;221529;262;195754;-67
2021/08/07 02:16:43;;;;;;;;;;;;;;;22.42;70.84;95945.08;220823;262;192948;-65
2021/08/07 02:17:44;;;;;;;;;;;;;;;22.46;70.68;95952.88;220847;262;99037;-64
2021/08/07 02:18:46;;;;;;;;;;;;;;;22.46;70.73;95944.59;220824;262;98946;-63
2021/08/07 02:19:47;;;;;;;;;;;;;;;22.48;70.65;95949.74;221168;262;98949;-63
2021/08/07 02:20:48;;;;;;;;;;;;;;;22.43;70.77;95941.16;219620;264;100555;-64
2021/08/07 02:21:49;;;;;;;;;;;;;;;22.47;70.63;95943.42;221356;262;98938;-64
2021/08/07 02:22:51;;;;;;;;;;;;;;;22.49;70.58;95946.61;221096;262;98950;-65
2021/08/07 02:23:52;;;;;;;;;;;;;;;22.52;70.48;95947.25;220951;262;192898;-66
2021/08/07 02:24:54;;;;;;;;;;;;;;;22.51;70.47;95944.28;221403;261;97976;-67
2021/08/07 02:25:55;;;;;;;;;;;;;;;22.50;70.49;95950.97;221307;261;99489;-67
2021/08/07 02:26:56;;;;;;;;;;;;;;;22.53;70.42;95947.47;222065;261;98986;-65
2021/08/07 02:27:58;;;;;;;;;;;;;;;22.49;70.60;95946.61;222065;261;98936;-65
2021/08/07 02:28:59;;;;;;;;;;;;;;;22.55;70.36;95943.56;222354;261;98941;-65
2021/08/07 02:30:00;;;;;;;;;;;;;;;22.59;70.17;95948.56;222040;261;98047;-66
2021/08/07 02:31:02;;;;;;;;;;;;;;;22.63;70.33;95943.31;221057;261;98003;-65
2021/08/07 02:32:03;;;;;;;;;;;;;;;22.74;69.91;95953.97;221659;261;97968;-62
2021/08/07 02:33:04;;;;;;;;;;;;;;;22.72;69.81;95937.55;220620;262;97753;-64
2021/08/07 02:34:06;;;;;;;;;;;;;;;22.66;69.77;95945.36;221084;262;98036;-64
2021/08/07 02:35:07;;;;;;;;;;;;;;;22.66;69.90;95947.33;222028;261;97984;-62
2021/08/07 02:36:08;;;;;;;;;;;;;;;22.65;69.85;95938.24;222147;261;100373;-63
2021/08/07 02:37:10;;;;;;;;;;;;;;;22.62;69.98;95942.30;221337;261;98946;-65
2021/08/07 02:38:11;;;;;;;;;;;;;;;22.68;69.95;95940.84;221564;261;193378;-63
2021/08/07 02:39:12;;;;;;;;;;;;;;;22.76;69.87;95946.72;221774;261;98952;-64
2021/08/07 02:40:14;;;;;;;;;;;;;;;22.70;69.77;95939.89;220447;262;98036;-62
2021/08/07 02:41:15;;;;;;;;;;;;;;;22.77;69.61;95941.41;221432;262;97941;-62
2021/08/07 02:42:16;;;;;;;;;;;;;;;22.74;69.68;95939.36;220948;262;98998;-64
2021/08/07 02:43:18;;;;;;;;;;;;;;;22.74;69.70;95944.30;222499;261;99015;-63
2021/08/07 02:44:19;;;;;;;;;;;;;;;22.71;69.68;95945.63;222259;261;98945;-64
2021/08/07 02:45:20;;;;;;;;;;;;;;;22.69;69.77;95947.97;220414;261;98957;-64
2021/08/07 02:46:22;;;;;;;;;;;;;;;22.67;69.83;95944.78;221459;261;98949;-62
2021/08/07 02:47:23;;;;;;;;;;;;;;;22.74;69.59;95942.92;221960;261;98981;-63
2021/08/07 02:48:24;;;;;;;;;;;;;;;22.75;69.58;95945.09;221225;262;100237;-64
2021/08/07 02:49:26;;;;;;;;;;;;;;;22.77;69.56;95946.94;220517;262;99021;-63
2021/08/07 02:50:27;;;;;;;;;;;;;;;22.74;69.51;95950.41;220409;262;97150;-62
2021/08/07 02:51:29;;;;;;;;;;;;;;;22.70;69.71;95942.07;222538;261;97988;-63
2021/08/07 02:52:30;;;;;;;;;;;;;;;22.67;69.66;95940.05;220856;262;193155;-63
2021/08/07 02:53:31;;;;;;;;;;;;;;;22.74;69.62;95946.27;221077;262;97950;-62
2021/08/07 02:54:33;;;;;;;;;;;;;;;22.71;69.76;95941.48;220790;262;98931;-64
2021/08/07 02:55:34;;;;;;;;;;;;;;;22.71;69.76;95937.34;221105;262;98950;-62
2021/08/07 02:56:35;;;;;;;;;;;;;;;22.73;69.67;95936.39;220922;262;99016;-64
2021/08/07 02:57:37;;;;;;;;;;;;;;;22.88;69.61;95932.76;221186;262;98931;-63
2021/08/07 02:58:38;;;;;;;;;;;;;;;22.79;69.25;95936.31;221068;262;98006;-63
2021/08/07 02:59:39;;;;;;;;;;;;;;;22.78;69.59;95941.62;221562;261;97882;-60
2021/08/07 03:00:41;;;;;;;;;;;;;;;22.84;69.26;95934.64;220902;262;98073;-64
2021/08/07 03:01:42;;;;;;;;;;;;;;;22.82;69.23;95941.09;220922;262;98956;-66
2021/08/07 03:02:43;;;;;;;;;;;;;;;22.83;69.29;95933.02;220980;262;100360;-64
2021/08/07 03:03:45;;;;;;;;;;;;;;;22.84;69.21;95938.78;220236;263;98938;-64
2021/08/07 03:04:46;;;;;;;;;;;;;;;22.89;69.04;95938.50;220938;263;97984;-64
2021/08/07 03:05:49;;;;;;;;;;;;;;;22.84;69.07;95937.99;221171;262;194895;-65
2021/08/07 03:06:51;;;;;;;;;;;;;;;22.74;69.68;95942.12;221266;262;192988;-63
2021/08/07 03:07:52;;;;;;;;;;;;;;;22.81;69.48;95937.53;221218;262;97065;-65
2021/08/07 03:08:53;;;;;;;;;;;;;;;22.81;69.28;95940.88;220797;263;99429;-66
2021/08/07 03:09:55;;;;;;;;;;;;;;;22.77;69.52;95940.03;220921;262;99093;-63
2021/08/07 03:10:56;;;;;;;;;;;;;;;22.74;69.64;95940.75;221257;262;98042;-66
2021/08/07 03:11:57;;;;;;;;;;;;;;;22.73;69.66;95939.15;221691;262;97985;-65
2021/08/07 03:12:59;;;;;;;;;;;;;;;22.76;69.55;95937.86;220926;262;98038;-67
2021/08/07 03:14:01;;;;;;;;;;;;;;;22.80;69.30;95932.38;220707;263;193979;-67
2021/08/07 03:15:02;;;;;;;;;;;;;;;22.91;68.96;95934.78;220873;263;98945;-63
2021/08/07 03:16:03;;;;;;;;;;;;;;;22.85;70.07;95934.86;220708;263;99428;-62
2021/08/07 03:17:05;;;;;;;;;;;;;;;22.97;68.70;95934.70;220744;263;100246;-62
2021/08/07 03:18:06;;;;;;;;;;;;;;;22.96;67.57;95937.22;220798;263;99052;-64
2021/08/07 03:19:07;;;;;;;;;;;;;;;23.05;67.46;95935.01;221014;263;98941;-62
2021/08/07 03:20:09;;;;;;;;;;;;;;;23.04;67.17;95933.41;220992;262;98969;-63
2021/08/07 03:21:10;;;;;;;;;;;;;;;23.08;66.91;95932.91;221334;262;98904;-62
2021/08/07 03:22:13;;;;;;;;;;;;;;;23.03;67.16;95937.35;221471;262;98945;-62
2021/08/07 03:23:14;;;;;;;;;;;;;;;23.25;66.90;95934.94;220821;263;97971;-62
2021/08/07 03:24:15;;;;;;;;;;;;;;;23.25;66.55;95936.31;220913;263;97984;-62
2021/08/07 03:25:17;;;;;;;;;;;;;;;23.26;66.53;95935.14;221219;262;98624;-62
2021/08/07 03:26:18;;;;;;;;;;;;;;;23.26;66.29;95938.70;221579;262;98989;-61
2021/08/07 03:27:19;;;;;;;;;;;;;;;23.17;66.39;95935.98;221061;261;194855;-62
2021/08/07 03:28:20;;;;;;;;;;;;;;;23.12;66.45;95934.92;221030;262;193199;-63
2021/08/07 03:29:22;;;;;;;;;;;;;;;23.14;66.63;95931.20;221634;262;98957;-62
2021/08/07 03:30:23;;;;;;;;;;;;;;;22.98;66.72;95930.77;220870;261;99228;-62
2021/08/07 03:31:25;;;;;;;;;;;;;;;23.02;66.74;95928.84;221072;263;98011;-62
2021/08/07 03:32:26;;;;;;;;;;;;;;;22.98;66.67;95929.97;220905;262;98957;-62
2021/08/07 03:33:27;;;;;;;;;;;;;;;22.94;66.87;95932.65;222225;261;98677;-62
2021/08/07 03:34:29;;;;;;;;;;;;;;;22.90;66.90;95926.86;222266;261;98872;-61
2021/08/07 03:35:30;;;;;;;;;;;;;;;22.86;66.98;95929.54;220397;262;98966;-62
2021/08/07 03:36:31;;;;;;;;;;;;;;;22.89;66.87;95928.03;221781;261;98844;-62
2021/08/07 03:37:33;;;;;;;;;;;;;;;22.80;67.08;95939.28;221093;262;97989;-62
2021/08/07 03:38:34;;;;;;;;;;;;;;;22.81;67.05;95936.16;220718;262;98948;-62
2021/08/07 03:39:35;;;;;;;;;;;;;;;22.86;67.17;95943.94;220859;260;100269;-60
2021/08/07 03:40:37;;;;;;;;;;;;;;;22.78;67.20;95936.10;220745;262;98946;-62
2021/08/07 03:41:38;;;;;;;;;;;;;;;22.69;67.24;95936.92;220812;261;98965;-61
2021/08/07 03:42:40;;;;;;;;;;;;;;;22.64;67.39;95933.06;221459;261;98981;-60
2021/08/07 03:43:42;;;;;;;;;;;;;;;22.68;67.41;95939.47;221512;261;97071;-61
2021/08/07 03:44:43;;;;;;;;;;;;;;;22.64;67.38;95941.34;221375;261;98951;-61
2021/08/07 03:45:44;;;;;;;;;;;;;;;22.63;67.38;95941.93;220747;262;98985;-61
2021/08/07 03:46:46;;;;;;;;;;;;;;;22.58;67.54;95944.20;220884;261;98938;-61
2021/08/07 03:47:47;;;;;;;;;;;;;;;22.58;67.70;95943.63;221877;261;98943;-60
2021/08/07 03:48:48;;;;;;;;;;;;;;;22.59;67.66;95940.28;221446;261;197143;-62
2021/08/07 03:49:50;;;;;;;;;;;;;;;22.57;67.61;95942.62;221186;261;193060;-61
2021/08/07 03:50:51;;;;;;;;;;;;;;;22.49;67.79;95946.61;221149;261;98008;-61
2021/08/07 03:51:52;;;;;;;;;;;;;;;22.46;67.97;95948.73;220913;261;98965;-61
2021/08/07 03:52:54;;;;;;;;;;;;;;;22.46;67.89;95947.34;220719;262;99007;-61
2021/08/07 03:53:55;;;;;;;;;;;;;;;22.45;68.07;95956.00;220495;262;98938;-60
2021/08/07 03:54:56;;;;;;;;;;;;;;;22.43;68.07;95958.30;221346;261;97959;-60
2021/08/07 03:55:58;;;;;;;;;;;;;;;22.39;68.07;95951.92;220964;261;98016;-60
2021/08/07 03:56:59;;;;;;;;;;;;;;;22.37;68.19;95949.53;221218;261;98003;-61
2021/08/07 03:58:00;;;;;;;;;;;;;;;22.38;68.23;95951.13;220687;262;97077;-61
2021/08/07 03:59:02;;;;;;;;;;;;;;;22.33;68.34;95950.06;220474;261;98969;-63
2021/08/07 04:00:03;;;;;;;;;;;;;;;22.34;68.36;95947.52;221547;261;98983;-62
2021/08/07 04:01:04;;;;;;;;;;;;;;;22.37;68.41;95952.88;220090;262;97957;-65
2021/08/07 04:02:06;;;;;;;;;;;;;;;22.49;68.71;95949.95;220816;262;98065;-67
2021/08/07 04:03:07;;;;;;;;;;;;;;;22.49;68.86;95949.95;219848;263;97983;-61
2021/08/07 04:04:09;;;;;;;;;;;;;;;22.53;68.74;95949.43;221389;261;100381;-59
2021/08/07 04:05:11;;;;;;;;;;;;;;;22.49;68.92;95946.61;219521;264;98878;-58
2021/08/07 04:06:12;;;;;;;;;;;;;;;22.48;68.99;95953.30;221238;261;97980;-57
2021/08/07 04:07:13;;;;;;;;;;;;;;;22.49;69.21;95949.38;221842;262;99180;-59
2021/08/07 04:08:15;;;;;;;;;;;;;;;22.44;69.49;95944.16;221545;262;98004;-62
2021/08/07 04:09:16;;;;;;;;;;;;;;;22.55;69.35;95938.05;221660;262;98010;-62
2021/08/07 04:10:17;;;;;;;;;;;;;;;22.46;69.83;95946.55;221465;262;194930;-62
2021/08/07 04:11:19;;;;;;;;;;;;;;;22.44;69.58;95944.16;220830;262;193174;-64
2021/08/07 04:12:20;;;;;;;;;;;;;;;22.43;69.56;95939.78;221411;262;98946;-65
2021/08/07 04:13:21;;;;;;;;;;;;;;;22.42;69.74;95944.28;221782;262;97953;-63
2021/08/07 04:14:23;;;;;;;;;;;;;;;22.42;69.91;95935.42;221054;261;98042;-60
2021/08/07 04:15:24;;;;;;;;;;;;;;;22.39;69.96;95942.27;220321;262;98940;-60
2021/08/07 04:16:26;;;;;;;;;;;;;;;22.37;69.86;95937.11;221132;262;98940;-56
2021/08/07 04:17:27;;;;;;;;;;;;;;;22.36;70.31;95934.14;220384;262;98953;-64
2021/08/07 04:18:28;;;;;;;;;;;;;;;22.35;70.38;95940.83;219331;262;195510;-63
2021/08/07 04:19:30;;;;;;;;;;;;;;;22.38;70.08;95942.05;220922;261;98014;-62
2021/08/07 04:20:31;;;;;;;;;;;;;;;22.42;69.96;95935.42;221693;262;98013;-62
2021/08/07 04:21:32;;;;;;;;;;;;;;;22.43;69.87;95938.39;221879;262;98983;-63
2021/08/07 04:22:34;;;;;;;;;;;;;;;22.35;70.50;95928.98;221443;262;98870;-59
2021/08/07 04:23:35;;;;;;;;;;;;;;;22.40;70.24;95936.38;221116;262;99480;-60
2021/08/07 04:24:36;;;;;;;;;;;;;;;22.43;70.10;95927.94;220839;262;98916;-57
2021/08/07 04:25:38;;;;;;;;;;;;;;;22.48;70.07;95929.03;220852;262;98946;-59
2021/08/07 04:26:39;;;;;;;;;;;;;;;22.47;70.33;95928.23;220994;262;99457;-63
2021/08/07 04:27:40;;;;;;;;;;;;;;;22.41;72.12;95924.16;221028;262;98981;-62
2021/08/07 04:28:42;;;;;;;;;;;;;;;22.38;71.04;95931.80;221770;262;98937;-61
2021/08/07 04:29:43;;;;;;;;;;;;;;;22.43;71.54;95925.17;220901;261;98950;-63
2021/08/07 04:30:44;;;;;;;;;;;;;;;22.44;70.14;95926.22;221172;262;98990;-60
2021/08/07 04:31:46;;;;;;;;;;;;;;;22.48;69.90;95927.07;220929;262;98986;-64
2021/08/07 04:32:47;;;;;;;;;;;;;;;22.50;69.89;95926.11;220853;262;98751;-63
2021/08/07 04:33:48;;;;;;;;;;;;;;;22.58;69.65;95923.50;221548;262;98867;-62
2021/08/07 04:34:50;;;;;;;;;;;;;;;22.61;69.59;95924.13;221354;262;98941;-64
2021/08/07 04:35:51;;;;;;;;;;;;;;;22.63;69.51;95925.36;221255;262;98949;-62
2021/08/07 04:36:53;;;;;;;;;;;;;;;22.62;69.41;95922.97;221382;262;98990;-62
2021/08/07 04:37:54;;;;;;;;;;;;;;;22.71;69.24;95923.53;221920;262;99311;-55
2021/08/07 04:38:55;;;;;;;;;;;;;;;22.75;69.09;95925.18;221666;262;98015;-58
2021/08/07 04:39:57;;;;;;;;;;;;;;;22.66;69.38;95922.47;221484;262;192125;-58
2021/08/07 04:40:58;;;;;;;;;;;;;;;22.58;71.02;95920.16;221623;262;99009;-60
2021/08/07 04:42:00;;;;;;;;;;;;;;;22.58;69.69;95923.50;221698;262;98962;-59
2021/08/07 04:43:01;;;;;;;;;;;;;;;22.58;69.65;95922.11;221905;262;98961;-61
2021/08/07 04:44:02;;;;;;;;;;;;;;;22.65;69.55;95920.84;221668;262;97882;-57
2021/08/07 04:45:04;;;;;;;;;;;;;;;22.60;69.52;95915.05;221844;262;98006;-57
2021/08/07 04:46:05;;;;;;;;;;;;;;;22.63;69.89;95914.31;221660;262;97743;-59
2021/08/07 04:47:07;;;;;;;;;;;;;;;22.60;69.73;95917.02;221580;262;193972;-58
2021/08/07 04:48:08;;;;;;;;;;;;;;;22.70;69.50;95909.52;221837;262;98956;-62
2021/08/07 04:49:09;;;;;;;;;;;;;;;22.74;69.24;95913.13;221734;262;97180;-59
2021/08/07 04:50:11;;;;;;;;;;;;;;;22.75;69.16;95917.48;221609;262;98925;-57
2021/08/07 04:51:12;;;;;;;;;;;;;;;22.72;69.24;95916.84;221456;262;98912;-61
2021/08/07 04:52:13;;;;;;;;;;;;;;;22.66;69.33;95917.74;221634;262;99265;-56
2021/08/07 04:53:15;;;;;;;;;;;;;;;22.63;69.44;95911.55;220870;262;99136;-61
2021/08/07 04:54:16;;;;;;;;;;;;;;;22.75;69.23;95916.09;220546;263;194004;-58
2021/08/07 04:55:18;;;;;;;;;;;;;;;22.70;69.16;95919.97;221779;262;100236;-60
2021/08/07 04:56:19;;;;;;;;;;;;;;;22.70;69.26;95920.56;220968;262;99001;-62
2021/08/07 04:57:20;;;;;;;;;;;;;;;22.72;69.21;95920.98;221496;261;99457;-58
2021/08/07 04:58:22;;;;;;;;;;;;;;;22.77;69.06;95926.22;220681;261;98929;-57
2021/08/07 04:59:23;;;;;;;;;;;;;;;22.75;69.10;95927.14;220761;262;98732;-61
2021/08/07 05:00:24;;;;;;;;;;;;;;;22.76;69.04;95926.00;220852;262;98879;-57
2021/08/07 05:01:26;;;;;;;;;;;;;;;22.74;69.00;95921.41;220394;262;98934;-60
2021/08/07 05:02:27;;;;;;;;;;;;;;;22.87;68.82;95930.37;220886;261;98945;-58
2021/08/07 05:03:28;;;;;;;;;;;;;;;22.89;68.59;95924.69;221170;261;98980;-58
2021/08/07 05:04:30;;;;;;;;;;;;;;;22.86;68.67;95929.54;221552;261;98839;-57
2021/08/07 05:05:31;;;;;;;;;;;;;;;22.80;68.87;95931.80;221995;261;98944;-62
2021/08/07 05:06:32;;;;;;;;;;;;;;;22.85;68.97;95934.86;221581;261;98977;-62
2021/08/07 05:07:34;;;;;;;;;;;;;;;23.02;68.37;95934.38;221385;261;98934;-62
2021/08/07 05:08:35;;;;;;;;;;;;;;;23.08;67.57;95923.23;221155;261;99058;-62
2021/08/07 05:09:36;;;;;;;;;;;;;;;23.23;67.04;95927.02;221481;260;97985;-62
2021/08/07 05:10:38;;;;;;;;;;;;;;;23.24;66.98;95925.05;221432;261;99429;-62
2021/08/07 05:11:39;;;;;;;;;;;;;;;23.25;66.68;95932.17;220709;262;98924;-62
2021/08/07 05:12:40;;;;;;;;;;;;;;;23.19;66.69;95928.14;220899;262;98972;-62
2021/08/07 05:13:42;;;;;;;;;;;;;;;23.13;66.66;95930.99;220708;262;98933;-62
2021/08/07 05:14:43;;;;;;;;;;;;;;;23.12;66.79;95930.78;220659;261;98986;-62
2021/08/07 05:15:44;;;;;;;;;;;;;;;23.09;66.95;95935.09;220897;262;97983;-62
2021/08/07 05:16:46;;;;;;;;;;;;;;;23.07;66.82;95935.47;220668;262;98023;-62
2021/08/07 05:17:47;;;;;;;;;;;;;;;23.07;66.91;95932.70;221354;261;98937;-62
2021/08/07 05:18:48;;;;;;;;;;;;;;;22.98;66.87;95934.91;221650;261;100333;-61